Keene, North Dakota
Current Conditions -  °F | °C
As of 5:55 PM on Wednesday 22 Oct 2014 (Local Time) from KD60 Reporting Station
Overcast Overcast  
Wind Chill: 57°   Ceiling: 5000
Heat Index: 57°   Visibility: 10mi
Dew Point: 41°   Wind: 16mph
Humidity: 55%   Direction: 290°WNW
Pressure: 29.83"   Gusts: NA
Location:  47.93°N, 102.94°W
Report Text: KD60 222255Z AUTO 29014KT 10SM OVC050 14/05 A2983 RMK AO2
Loading
Personal Weather Stations






























Interactive Weather Map
Tropical Storm Tracking
New forecast layout! Learn more

10-Day Weather Forecast

Advertisements
Track Severe Weather on mobile